Time;durP1;ratioP1;P1;durP2;ratioP2;P2;SDS_P1;SDS_P2;PMS_P1;PMS_P2;Temp;Humidity;BMP_temperature;BMP_pressure;BME280_temperature;BME280_humidity;BME280_pressure;Samples;Min_cycle;Max_cycle;Signal;HPM_P1;HPM_P2
2022/03/08 00:00:49;;;;;;;94.45;47.47;;;;;;;;;;5056078;28;20033;-72
2022/03/08 00:03:14;;;;;;;102.40;48.28;;;;;;;;;;5055957;28;20047;-72
2022/03/08 00:05:40;;;;;;;97.20;46.03;;;;;;;;;;5055846;28;20045;-73
2022/03/08 00:08:05;;;;;;;100.85;48.88;;;;;;;;;;5055568;28;20406;-73
2022/03/08 00:10:31;;;;;;;94.22;46.17;;;;;;;;;;5055810;28;20040;-73
2022/03/08 00:12:56;;;;;;;95.30;44.97;;;;;;;;;;5055851;28;20021;-72
2022/03/08 00:15:24;;;;;;;93.00;46.13;;;;;;;;;;5055457;28;20028;-72
2022/03/08 00:17:50;;;;;;;90.50;45.05;;;;;;;;;;5055679;28;20025;-72
2022/03/08 00:20:16;;;;;;;76.55;38.35;;;;;;;;;;5054297;28;20064;-72
2022/03/08 00:22:41;;;;;;;69.70;36.22;;;;;;;;;;5055013;28;20523;-72
2022/03/08 00:25:08;;;;;;;58.83;31.52;;;;;;;;;;5055183;28;20044;-71
2022/03/08 00:27:34;;;;;;;51.72;26.02;;;;;;;;;;5055546;28;20040;-70
2022/03/08 00:30:03;;;;;;;41.67;21.17;;;;;;;;;;5055235;28;20021;-72
2022/03/08 00:32:43;;;;;;;37.03;18.55;;;;;;;;;;5054330;28;20043;-73
2022/03/08 00:35:23;;;;;;;31.02;17.70;;;;;;;;;;5053767;28;20376;-63
2022/03/08 00:37:49;;;;;;;30.40;16.20;;;;;;;;;;5053944;28;20344;-63
2022/03/08 00:40:16;;;;;;;26.98;14.93;;;;;;;;;;5053996;28;20147;-64
2022/03/08 00:42:41;;;;;;;22.33;14.18;;;;;;;;;;5053863;28;20436;-63
2022/03/08 00:45:09;;;;;;;24.42;13.88;;;;;;;;;;5053812;28;20021;-63
2022/03/08 00:47:35;;;;;;;25.02;13.80;;;;;;;;;;5054819;28;20017;-63
2022/03/08 00:50:01;;;;;;;21.52;12.90;;;;;;;;;;5054946;28;20021;-63
2022/03/08 00:52:27;;;;;;;22.55;13.40;;;;;;;;;;5054898;28;20475;-63
2022/03/08 00:54:53;;;;;;;24.25;13.73;;;;;;;;;;5053534;28;20032;-63
2022/03/08 00:57:18;;;;;;;20.02;12.30;;;;;;;;;;5053822;28;20033;-63
2022/03/08 00:59:44;;;;;;;18.30;10.95;;;;;;;;;;5054716;28;20360;-63
2022/03/08 01:02:09;;;;;;;18.65;11.02;;;;;;;;;;5053053;28;20167;-63
2022/03/08 01:04:34;;;;;;;28.45;15.23;;;;;;;;;;5055007;28;20482;-63
2022/03/08 01:07:01;;;;;;;58.30;30.85;;;;;;;;;;5053265;28;20024;-63
2022/03/08 01:09:26;;;;;;;64.93;36.47;;;;;;;;;;5054604;28;20024;-63
2022/03/08 01:11:52;;;;;;;73.55;40.58;;;;;;;;;;5053193;28;20033;-64
2022/03/08 01:14:19;;;;;;;74.60;40.17;;;;;;;;;;5054313;28;20028;-71
2022/03/08 01:16:45;;;;;;;73.75;38.75;;;;;;;;;;5054462;28;20029;-70
2022/03/08 01:19:11;;;;;;;70.53;38.25;;;;;;;;;;5054669;28;20360;-70
2022/03/08 01:21:37;;;;;;;66.82;37.58;;;;;;;;;;5052957;28;20031;-71
2022/03/08 01:24:03;;;;;;;66.68;36.70;;;;;;;;;;5052951;28;20123;-63
2022/03/08 01:26:29;;;;;;;65.90;36.55;;;;;;;;;;5054201;28;20387;-63
2022/03/08 01:28:56;;;;;;;71.15;36.97;;;;;;;;;;5052595;28;20017;-63
2022/03/08 01:31:21;;;;;;;71.05;36.10;;;;;;;;;;5052756;28;20035;-63
2022/03/08 01:33:50;;;;;;;67.22;36.28;;;;;;;;;;5036694;28;20426;-63
2022/03/08 01:36:16;;;;;;;68.43;35.88;;;;;;;;;;5054251;28;20029;-63
2022/03/08 01:38:42;;;;;;;62.47;33.42;;;;;;;;;;5052689;28;20020;-64
2022/03/08 01:41:07;;;;;;;58.67;32.50;;;;;;;;;;5052866;28;20036;-63
2022/03/08 01:43:33;;;;;;;61.22;33.22;;;;;;;;;;5052541;28;20032;-64
2022/03/08 01:45:59;;;;;;;54.17;30.27;;;;;;;;;;5052844;28;20022;-64
2022/03/08 01:48:24;;;;;;;57.65;31.40;;;;;;;;;;5053449;28;20017;-64
2022/03/08 01:50:50;;;;;;;61.10;32.95;;;;;;;;;;5052401;28;20037;-64
2022/03/08 01:53:15;;;;;;;59.65;34.08;;;;;;;;;;5053656;28;20025;-63
2022/03/08 01:55:41;;;;;;;63.75;34.10;;;;;;;;;;5052301;28;20025;-63
2022/03/08 01:58:06;;;;;;;60.83;33.33;;;;;;;;;;5053674;28;20481;-71
2022/03/08 02:00:32;;;;;;;59.95;33.42;;;;;;;;;;5052417;28;20471;-71
2022/03/08 02:03:00;;;;;;;63.85;34.03;;;;;;;;;;5053680;28;20087;-70
2022/03/08 02:05:26;;;;;;;57.60;32.35;;;;;;;;;;5053858;28;20482;-70
2022/03/08 02:07:52;;;;;;;61.05;32.47;;;;;;;;;;5053615;28;20036;-62
2022/03/08 02:10:18;;;;;;;63.50;32.38;;;;;;;;;;5053388;28;20017;-63
2022/03/08 02:12:43;;;;;;;60.83;31.38;;;;;;;;;;5053483;28;20528;-62
2022/03/08 02:15:12;;;;;;;56.15;30.15;;;;;;;;;;5052454;28;20104;-63
2022/03/08 02:17:38;;;;;;;52.60;29.52;;;;;;;;;;5053467;28;20108;-64
2022/03/08 02:20:04;;;;;;;53.67;28.92;;;;;;;;;;5053316;28;20061;-62
2022/03/08 02:22:30;;;;;;;56.30;29.25;;;;;;;;;;5051546;28;20060;-64
2022/03/08 02:24:55;;;;;;;56.13;30.17;;;;;;;;;;5052499;28;20033;-63
2022/03/08 02:27:22;;;;;;;53.72;30.23;;;;;;;;;;5053255;28;20066;-63
2022/03/08 02:29:48;;;;;;;56.35;30.00;;;;;;;;;;5053312;28;20040;-63
2022/03/08 02:32:13;;;;;;;55.08;30.13;;;;;;;;;;5053225;28;20021;-63
2022/03/08 02:34:39;;;;;;;54.25;30.35;;;;;;;;;;5051949;28;20056;-62
2022/03/08 02:37:07;;;;;;;59.58;31.02;;;;;;;;;;5053109;28;20067;-63
2022/03/08 02:39:33;;;;;;;52.08;29.60;;;;;;;;;;5053170;28;20025;-63
2022/03/08 02:41:59;;;;;;;55.75;29.45;;;;;;;;;;5053075;28;20340;-63
2022/03/08 02:44:24;;;;;;;57.50;30.08;;;;;;;;;;5052892;28;20086;-62
2022/03/08 02:46:50;;;;;;;66.68;31.85;;;;;;;;;;5053372;28;20013;-62
2022/03/08 02:49:16;;;;;;;60.80;30.08;;;;;;;;;;5051557;28;20036;-62
2022/03/08 02:51:41;;;;;;;61.50;30.48;;;;;;;;;;5051468;28;20436;-63
2022/03/08 02:54:06;;;;;;;55.60;30.40;;;;;;;;;;5053294;28;20044;-63
2022/03/08 02:56:32;;;;;;;56.45;30.10;;;;;;;;;;5051934;28;20082;-63
2022/03/08 02:58:57;;;;;;;53.28;30.60;;;;;;;;;;5053279;28;20065;-63
2022/03/08 03:01:23;;;;;;;61.92;32.50;;;;;;;;;;5056218;28;20091;-63
2022/03/08 03:03:48;;;;;;;56.40;30.73;;;;;;;;;;5057000;28;20032;-63
2022/03/08 03:06:14;;;;;;;66.57;31.95;;;;;;;;;;5056864;28;20009;-63
2022/03/08 03:08:39;;;;;;;59.10;30.27;;;;;;;;;;5055877;28;20094;-63
2022/03/08 03:11:05;;;;;;;61.75;29.85;;;;;;;;;;5056795;28;20096;-63
2022/03/08 03:13:30;;;;;;;62.53;31.65;;;;;;;;;;5056995;28;20432;-63
2022/03/08 03:15:56;;;;;;;61.33;30.55;;;;;;;;;;5056866;28;20029;-63
2022/03/08 03:18:21;;;;;;;63.63;31.67;;;;;;;;;;5055405;28;20025;-63
2022/03/08 03:20:46;;;;;;;59.78;29.73;;;;;;;;;;5056577;28;20020;-63
2022/03/08 03:23:13;;;;;;;60.25;30.80;;;;;;;;;;5055030;28;20112;-63
2022/03/08 03:25:39;;;;;;;63.03;30.52;;;;;;;;;;5056419;28;20036;-63
2022/03/08 03:28:04;;;;;;;67.35;30.98;;;;;;;;;;5056419;28;20490;-63
2022/03/08 03:30:30;;;;;;;62.85;29.13;;;;;;;;;;5056408;28;20025;-63
2022/03/08 03:33:03;;;;;;;62.80;30.40;;;;;;;;;;5056275;28;20021;-70
2022/03/08 03:35:29;;;;;;;58.30;29.67;;;;;;;;;;5056393;28;20511;-71
2022/03/08 03:37:54;;;;;;;58.75;29.67;;;;;;;;;;5056433;28;20013;-70
2022/03/08 03:40:20;;;;;;;56.83;29.00;;;;;;;;;;5056346;28;20486;-70
2022/03/08 03:42:46;;;;;;;50.55;27.48;;;;;;;;;;5056308;28;20021;-70
2022/03/08 03:45:11;;;;;;;50.00;27.65;;;;;;;;;;5056346;28;20087;-71
2022/03/08 03:47:37;;;;;;;55.83;27.55;;;;;;;;;;5055937;28;20021;-70
2022/03/08 03:50:06;;;;;;;50.25;26.80;;;;;;;;;;5056180;28;20086;-70
2022/03/08 03:52:32;;;;;;;54.33;27.90;;;;;;;;;;5054906;28;20032;-70
2022/03/08 03:54:57;;;;;;;57.70;28.80;;;;;;;;;;5071584;28;20037;-71
2022/03/08 03:57:23;;;;;;;56.95;29.20;;;;;;;;;;5054944;28;20026;-71
2022/03/08 03:59:48;;;;;;;52.92;27.95;;;;;;;;;;5055823;28;20039;-71
2022/03/08 04:02:14;;;;;;;51.95;28.00;;;;;;;;;;5055092;28;20519;-72
2022/03/08 04:04:40;;;;;;;51.97;27.77;;;;;;;;;;5055145;28;20029;-72
2022/03/08 04:07:06;;;;;;;54.17;28.23;;;;;;;;;;5055304;28;20060;-72
2022/03/08 04:09:31;;;;;;;53.38;27.35;;;;;;;;;;5054135;28;20059;-73
2022/03/08 04:11:57;;;;;;;47.20;26.92;;;;;;;;;;5054496;28;20021;-73
2022/03/08 04:14:22;;;;;;;49.28;25.88;;;;;;;;;;5053871;28;20029;-72
2022/03/08 04:16:48;;;;;;;52.10;28.38;;;;;;;;;;5053651;28;20432;-72
2022/03/08 04:19:13;;;;;;;58.45;29.42;;;;;;;;;;5054049;28;20374;-72
2022/03/08 04:21:39;;;;;;;51.10;27.98;;;;;;;;;;5053331;28;20017;-71
2022/03/08 04:24:05;;;;;;;66.75;34.53;;;;;;;;;;5054931;28;20083;-71
2022/03/08 04:26:30;;;;;;;87.43;41.72;;;;;;;;;;5053517;28;20028;-71
2022/03/08 04:28:56;;;;;;;81.38;39.72;;;;;;;;;;5055374;28;20020;-71
2022/03/08 04:31:21;;;;;;;78.90;37.72;;;;;;;;;;5054691;28;20040;-71
2022/03/08 04:33:47;;;;;;;63.38;32.72;;;;;;;;;;5054566;28;20071;-70
2022/03/08 04:36:12;;;;;;;61.72;32.15;;;;;;;;;;5054641;28;20067;-70
2022/03/08 04:38:38;;;;;;;56.28;27.85;;;;;;;;;;5053453;28;20082;-70
2022/03/08 04:41:06;;;;;;;50.35;26.83;;;;;;;;;;5053423;28;20084;-71
2022/03/08 04:43:32;;;;;;;46.85;25.23;;;;;;;;;;5054401;28;20035;-71
2022/03/08 04:45:57;;;;;;;42.88;24.42;;;;;;;;;;5053242;28;20050;-71
2022/03/08 04:48:23;;;;;;;43.40;24.13;;;;;;;;;;5054699;28;20025;-70
2022/03/08 04:50:48;;;;;;;40.30;23.70;;;;;;;;;;5054420;28;20471;-70
2022/03/08 04:53:14;;;;;;;44.03;24.05;;;;;;;;;;5054351;28;20017;-71
2022/03/08 04:55:39;;;;;;;40.47;24.80;;;;;;;;;;5052960;28;20020;-71
2022/03/08 04:58:08;;;;;;;41.60;23.95;;;;;;;;;;5052990;28;20028;-63
2022/03/08 05:00:33;;;;;;;41.22;23.75;;;;;;;;;;5053051;28;20162;-63
2022/03/08 05:02:59;;;;;;;39.88;22.35;;;;;;;;;;5054198;28;20570;-71
2022/03/08 05:05:24;;;;;;;39.22;22.40;;;;;;;;;;5052808;28;20013;-71
2022/03/08 05:07:50;;;;;;;36.13;21.65;;;;;;;;;;5053742;28;20422;-72
2022/03/08 05:10:15;;;;;;;38.60;22.83;;;;;;;;;;5054441;28;20005;-71
2022/03/08 05:12:41;;;;;;;45.17;24.77;;;;;;;;;;5053161;28;20471;-71
2022/03/08 05:15:07;;;;;;;42.60;24.75;;;;;;;;;;5053296;28;20055;-63
2022/03/08 05:17:33;;;;;;;40.08;23.13;;;;;;;;;;5053651;28;20029;-63
2022/03/08 05:19:58;;;;;;;41.30;22.95;;;;;;;;;;5053844;28;20486;-63
2022/03/08 05:22:24;;;;;;;35.78;21.52;;;;;;;;;;5053241;28;20498;-63
2022/03/08 05:24:49;;;;;;;33.80;21.23;;;;;;;;;;5051354;28;20143;-71
2022/03/08 05:27:15;;;;;;;37.08;21.52;;;;;;;;;;5054342;28;20518;-71
2022/03/08 05:29:41;;;;;;;37.28;21.70;;;;;;;;;;5054373;28;20035;-71
2022/03/08 05:32:07;;;;;;;33.15;20.13;;;;;;;;;;5054184;28;20486;-71
2022/03/08 05:34:33;;;;;;;35.22;22.55;;;;;;;;;;5054005;28;20441;-72
2022/03/08 05:36:59;;;;;;;32.33;20.90;;;;;;;;;;5053270;28;20025;-72
2022/03/08 05:39:24;;;;;;;33.33;20.30;;;;;;;;;;5054123;28;20142;-72
2022/03/08 05:41:51;;;;;;;33.70;20.05;;;;;;;;;;5054206;28;20455;-71
2022/03/08 05:44:17;;;;;;;34.40;19.65;;;;;;;;;;5053712;28;20106;-71
2022/03/08 05:46:42;;;;;;;32.05;19.83;;;;;;;;;;5053645;28;20483;-71
2022/03/08 05:49:08;;;;;;;32.00;18.95;;;;;;;;;;5052279;28;20445;-72
2022/03/08 05:51:33;;;;;;;32.97;19.42;;;;;;;;;;5053665;28;20029;-71
2022/03/08 05:53:59;;;;;;;29.40;18.25;;;;;;;;;;5052447;28;20041;-71
2022/03/08 05:56:24;;;;;;;27.20;17.48;;;;;;;;;;5053512;28;20025;-70
2022/03/08 05:58:50;;;;;;;30.92;18.20;;;;;;;;;;5052316;28;20030;-70
2022/03/08 06:01:16;;;;;;;29.80;18.52;;;;;;;;;;5053341;28;20086;-70
2022/03/08 06:03:42;;;;;;;23.42;15.35;;;;;;;;;;5053279;28;20035;-71
2022/03/08 06:06:07;;;;;;;26.10;14.90;;;;;;;;;;5052072;28;20096;-71
2022/03/08 06:08:33;;;;;;;25.20;14.57;;;;;;;;;;5053288;28;20213;-71
2022/03/08 06:10:58;;;;;;;21.92;13.10;;;;;;;;;;5053389;28;20035;-71
2022/03/08 06:13:24;;;;;;;23.05;13.35;;;;;;;;;;5053513;28;20029;-71
2022/03/08 06:15:49;;;;;;;19.40;12.75;;;;;;;;;;5053234;28;20017;-71
2022/03/08 06:18:14;;;;;;;22.92;13.27;;;;;;;;;;5053173;28;20029;-71
2022/03/08 06:20:40;;;;;;;22.05;12.73;;;;;;;;;;5053156;28;20061;-71
2022/03/08 06:23:06;;;;;;;22.05;13.85;;;;;;;;;;5051246;28;20132;-71
2022/03/08 06:25:31;;;;;;;24.25;13.95;;;;;;;;;;5052964;28;20029;-71
2022/03/08 06:27:57;;;;;;;22.20;13.82;;;;;;;;;;5051864;28;20025;-71
2022/03/08 06:30:22;;;;;;;23.73;15.50;;;;;;;;;;5051964;28;20083;-72
2022/03/08 06:32:48;;;;;;;25.02;15.52;;;;;;;;;;5053029;28;20029;-72
2022/03/08 06:35:13;;;;;;;25.67;15.50;;;;;;;;;;5052606;28;20458;-71
2022/03/08 06:37:39;;;;;;;26.70;15.60;;;;;;;;;;5053068;28;20033;-71
2022/03/08 06:40:04;;;;;;;23.83;13.93;;;;;;;;;;5053031;28;20017;-71
2022/03/08 06:42:30;;;;;;;22.05;13.88;;;;;;;;;;5052831;28;20490;-71
2022/03/08 06:45:01;;;;;;;20.55;13.02;;;;;;;;;;5052784;28;20107;-71
2022/03/08 06:47:27;;;;;;;22.70;15.05;;;;;;;;;;5051590;28;20029;-71
2022/03/08 06:49:52;;;;;;;20.33;13.77;;;;;;;;;;5051639;28;20024;-71
2022/03/08 06:52:18;;;;;;;23.40;15.27;;;;;;;;;;5052784;28;20094;-71
2022/03/08 06:54:43;;;;;;;21.65;14.48;;;;;;;;;;5052785;28;20506;-71
2022/03/08 06:57:08;;;;;;;17.90;13.80;;;;;;;;;;5051472;28;20032;-71
2022/03/08 06:59:34;;;;;;;20.40;13.32;;;;;;;;;;5052828;28;20029;-72
2022/03/08 07:01:59;;;;;;;19.52;13.85;;;;;;;;;;5052821;28;20025;-71
2022/03/08 07:04:24;;;;;;;22.60;13.18;;;;;;;;;;5051465;28;20017;-71
2022/03/08 07:06:50;;;;;;;16.65;12.52;;;;;;;;;;5052753;28;20033;-71
2022/03/08 07:09:16;;;;;;;17.23;12.27;;;;;;;;;;5052673;28;20021;-70
2022/03/08 07:11:41;;;;;;;16.83;12.57;;;;;;;;;;5052640;28;20120;-71
2022/03/08 07:14:07;;;;;;;17.42;12.55;;;;;;;;;;5051248;28;20021;-71
2022/03/08 07:16:32;;;;;;;17.90;12.32;;;;;;;;;;5051365;28;20083;-71
2022/03/08 07:18:58;;;;;;;18.58;12.10;;;;;;;;;;5051410;28;20440;-70
2022/03/08 07:21:23;;;;;;;15.70;11.85;;;;;;;;;;5051437;28;20479;-71
2022/03/08 07:23:48;;;;;;;18.05;12.10;;;;;;;;;;5051876;28;20395;-71
2022/03/08 07:26:14;;;;;;;17.50;12.15;;;;;;;;;;5052636;28;20056;-71
2022/03/08 07:28:39;;;;;;;17.65;12.23;;;;;;;;;;5052364;28;20108;-71
2022/03/08 07:31:06;;;;;;;17.15;11.85;;;;;;;;;;5051289;28;20441;-71
2022/03/08 07:33:32;;;;;;;14.48;11.32;;;;;;;;;;5051231;28;20066;-71
2022/03/08 07:35:58;;;;;;;18.85;11.48;;;;;;;;;;5052370;28;20120;-71
2022/03/08 07:38:23;;;;;;;15.43;11.32;;;;;;;;;;5052393;28;20426;-71
2022/03/08 07:40:48;;;;;;;19.10;11.32;;;;;;;;;;5052319;28;20399;-71
2022/03/08 07:43:14;;;;;;;13.35;11.00;;;;;;;;;;5052364;28;20025;-72
2022/03/08 07:45:40;;;;;;;13.43;10.35;;;;;;;;;;5052350;28;20124;-71
2022/03/08 07:48:05;;;;;;;12.65;9.38;;;;;;;;;;5054680;28;20111;-71
2022/03/08 07:50:31;;;;;;;13.80;10.55;;;;;;;;;;5055723;28;20029;-71
2022/03/08 07:52:59;;;;;;;13.18;9.88;;;;;;;;;;5056010;28;20071;-71
2022/03/08 07:55:26;;;;;;;12.20;9.80;;;;;;;;;;5055864;28;20017;-70
2022/03/08 07:57:51;;;;;;;12.95;10.07;;;;;;;;;;5055822;28;20044;-71
2022/03/08 08:00:17;;;;;;;14.95;10.18;;;;;;;;;;5055725;28;20407;-71
2022/03/08 08:02:42;;;;;;;11.85;9.07;;;;;;;;;;5055743;28;20099;-71
2022/03/08 08:05:08;;;;;;;12.38;8.90;;;;;;;;;;5055577;28;20115;-71
2022/03/08 08:07:34;;;;;;;12.57;9.55;;;;;;;;;;5054365;28;20021;-70
2022/03/08 08:10:00;;;;;;;12.85;8.75;;;;;;;;;;5055384;28;20036;-71
2022/03/08 08:12:26;;;;;;;26.15;15.70;;;;;;;;;;5055421;28;20013;-70
2022/03/08 08:14:51;;;;;;;27.10;16.85;;;;;;;;;;5055450;28;20509;-69
2022/03/08 08:17:18;;;;;;;109.10;40.90;;;;;;;;;;5055309;28;20029;-70
2022/03/08 08:19:43;;;;;;;37.22;20.85;;;;;;;;;;5055193;28;20182;-69
2022/03/08 08:22:09;;;;;;;24.80;17.90;;;;;;;;;;5054974;28;20098;-69
2022/03/08 08:24:35;;;;;;;22.83;15.07;;;;;;;;;;5055383;28;20029;-69
2022/03/08 08:27:01;;;;;;;183.40;98.88;;;;;;;;;;5055173;28;20032;-69
2022/03/08 08:29:26;;;;;;;333.35;185.25;;;;;;;;;;5055127;28;20024;-69
2022/03/08 08:31:52;;;;;;;30.08;19.90;;;;;;;;;;5053780;28;20116;-69
2022/03/08 08:34:17;;;;;;;43.75;26.13;;;;;;;;;;5055075;28;20437;-69
2022/03/08 08:36:46;;;;;;;61.08;32.50;;;;;;;;;;5054957;28;20052;-69
2022/03/08 08:39:14;;;;;;;312.98;173.07;;;;;;;;;;5053641;28;20463;-70
2022/03/08 08:41:40;;;;;;;53.38;28.95;;;;;;;;;;5054910;28;20021;-69
2022/03/08 08:44:06;;;;;;;141.65;59.15;;;;;;;;;;5054769;28;20039;-69
2022/03/08 08:46:31;;;;;;;1041.13;437.73;;;;;;;;;;5054753;28;20044;-70
2022/03/08 08:48:57;;;;;;;1579.82;541.35;;;;;;;;;;5054707;28;20052;-69
2022/03/08 08:51:22;;;;;;;1999.90;873.25;;;;;;;;;;5054713;28;20013;-69
2022/03/08 08:53:48;;;;;;;890.08;330.52;;;;;;;;;;5054567;28;20087;-70
2022/03/08 08:56:13;;;;;;;558.58;191.80;;;;;;;;;;5054611;28;20471;-69
2022/03/08 08:58:39;;;;;;;582.75;208.43;;;;;;;;;;5054467;28;20111;-69
2022/03/08 09:01:04;;;;;;;1262.97;544.42;;;;;;;;;;5054433;28;20017;-69
2022/03/08 09:03:30;;;;;;;835.95;399.63;;;;;;;;;;5054412;28;20067;-69
2022/03/08 09:05:56;;;;;;;669.80;321.85;;;;;;;;;;5054369;28;20013;-68
2022/03/08 09:08:24;;;;;;;561.63;218.05;;;;;;;;;;5054354;28;20032;-69
2022/03/08 09:10:52;;;;;;;273.08;88.90;;;;;;;;;;5054164;28;20025;-68
2022/03/08 09:13:19;;;;;;;789.45;327.45;;;;;;;;;;5054400;28;20021;-68
2022/03/08 09:15:44;;;;;;;731.55;308.65;;;;;;;;;;5054208;28;20036;-68
2022/03/08 09:18:10;;;;;;;429.05;179.82;;;;;;;;;;5054305;28;20037;-68
2022/03/08 09:20:36;;;;;;;697.13;357.55;;;;;;;;;;5054207;28;20021;-69
2022/03/08 09:23:01;;;;;;;81.55;34.25;;;;;;;;;;5052576;28;20045;-68
2022/03/08 09:25:27;;;;;;;26.42;15.85;;;;;;;;;;5054092;28;20504;-69
2022/03/08 09:27:53;;;;;;;15.43;9.73;;;;;;;;;;5054187;28;20455;-69
2022/03/08 09:30:18;;;;;;;892.47;459.40;;;;;;;;;;5054070;28;20013;-69
2022/03/08 09:32:44;;;;;;;431.75;214.52;;;;;;;;;;5053910;28;20036;-68
2022/03/08 09:35:09;;;;;;;87.05;44.58;;;;;;;;;;5054010;28;20029;-68
2022/03/08 09:37:35;;;;;;;41.25;20.40;;;;;;;;;;5052584;28;20033;-68
2022/03/08 09:40:02;;;;;;;194.20;86.95;;;;;;;;;;5053831;28;20100;-69
2022/03/08 09:42:29;;;;;;;401.23;198.30;;;;;;;;;;5053792;28;20486;-69
2022/03/08 09:44:55;;;;;;;282.13;140.88;;;;;;;;;;5053662;28;20032;-68
2022/03/08 09:47:21;;;;;;;32.33;19.50;;;;;;;;;;5052879;28;20025;-68
2022/03/08 09:50:05;;;;;;;18.35;11.68;;;;;;;;;;5052799;28;20017;-69
2022/03/08 09:52:35;;;;;;;11.38;8.35;;;;;;;;;;5053939;28;20033;-70
2022/03/08 09:55:00;;;;;;;158.23;90.55;;;;;;;;;;5050529;28;20028;-69
2022/03/08 09:57:30;;;;;;;45.40;28.20;;;;;;;;;;5051965;28;20020;-69
2022/03/08 09:59:56;;;;;;;115.15;65.90;;;;;;;;;;5052929;28;20033;-69
2022/03/08 10:02:24;;;;;;;73.88;45.35;;;;;;;;;;5053257;28;20027;-69
2022/03/08 10:05:03;;;;;;;41.40;26.80;;;;;;;;;;5053358;28;20483;-69
2022/03/08 10:07:29;;;;;;;65.28;46.55;;;;;;;;;;5053542;28;20170;-70
2022/03/08 10:09:55;;;;;;;70.22;48.95;;;;;;;;;;5053074;28;20160;-69
2022/03/08 10:12:21;;;;;;;13.52;10.50;;;;;;;;;;5053395;28;20032;-69
2022/03/08 10:14:47;;;;;;;7.03;5.10;;;;;;;;;;5053318;28;20024;-69
2022/03/08 10:17:33;;;;;;;6.28;4.82;;;;;;;;;;5052130;28;20033;-69
2022/03/08 10:19:59;;;;;;;6.60;5.25;;;;;;;;;;5053206;28;20048;-69
2022/03/08 10:22:32;;;;;;;10.98;5.53;;;;;;;;;;5051717;28;20506;-69
2022/03/08 10:25:10;;;;;;;14.13;10.52;;;;;;;;;;5053228;28;20036;-69
2022/03/08 10:27:35;;;;;;;13.70;10.90;;;;;;;;;;5053240;28;20025;-69
2022/03/08 10:30:02;;;;;;;11.25;7.75;;;;;;;;;;5053176;28;20016;-69
2022/03/08 10:32:35;;;;;;;6.47;5.00;;;;;;;;;;5053124;28;20021;-69
2022/03/08 10:35:01;;;;;;;13.70;12.20;;;;;;;;;;5053153;28;20119;-69
2022/03/08 10:37:33;;;;;;;26.15;23.35;;;;;;;;;;5053186;28;20099;-69
2022/03/08 10:40:07;;;;;;;5.70;4.78;;;;;;;;;;5053226;28;20028;-69
2022/03/08 10:42:35;;;;;;;24.70;15.93;;;;;;;;;;5053180;28;20029;-69
2022/03/08 10:45:02;;;;;;;10.02;6.65;;;;;;;;;;5051570;28;20485;-69
2022/03/08 10:47:36;;;;;;;48.13;20.33;;;;;;;;;;5052948;28;20039;-69
2022/03/08 10:50:03;;;;;;;12.75;7.38;;;;;;;;;;5052812;28;20394;-69
2022/03/08 10:52:32;;;;;;;17.45;9.40;;;;;;;;;;5052556;28;20017;-69
2022/03/08 10:55:18;;;;;;;116.60;38.00;;;;;;;;;;5052169;28;20025;-70
2022/03/08 10:57:45;;;;;;;120.43;39.70;;;;;;;;;;5051778;28;20033;-70
2022/03/08 11:00:12;;;;;;;44.63;18.45;;;;;;;;;;5052786;28;20079;-70
2022/03/08 11:02:49;;;;;;;330.13;86.15;;;;;;;;;;5052235;28;20032;-70
2022/03/08 11:05:15;;;;;;;279.27;88.25;;;;;;;;;;5052620;28;20037;-70
2022/03/08 11:07:41;;;;;;;212.77;57.33;;;;;;;;;;5051781;28;20028;-70
2022/03/08 11:10:10;;;;;;;338.60;101.53;;;;;;;;;;5052696;28;20383;-70
2022/03/08 11:12:37;;;;;;;138.50;38.55;;;;;;;;;;5052707;28;20021;-69
2022/03/08 11:15:03;;;;;;;387.98;94.32;;;;;;;;;;5051190;28;20060;-70
2022/03/08 11:17:29;;;;;;;110.68;31.08;;;;;;;;;;5052381;28;20024;-70
2022/03/08 11:19:56;;;;;;;90.80;24.10;;;;;;;;;;5051280;28;20041;-70
2022/03/08 11:22:22;;;;;;;265.92;64.13;;;;;;;;;;5052308;28;20128;-70
2022/03/08 11:24:48;;;;;;;209.52;50.85;;;;;;;;;;5056171;28;20090;-70
2022/03/08 11:27:14;;;;;;;592.80;166.65;;;;;;;;;;5056351;28;20057;-70
2022/03/08 11:29:40;;;;;;;11.23;9.07;;;;;;;;;;5056257;28;20032;-70
2022/03/08 11:32:09;;;;;;;18.33;9.10;;;;;;;;;;5056383;28;20024;-70
2022/03/08 11:34:55;;;;;;;495.88;119.10;;;;;;;;;;5056304;28;20032;-71
2022/03/08 11:37:23;;;;;;;11.82;6.53;;;;;;;;;;5056179;28;20128;-70
2022/03/08 11:40:05;;;;;;;6.22;4.55;;;;;;;;;;5038245;28;20100;-70
2022/03/08 11:42:32;;;;;;;4.28;3.80;;;;;;;;;;5056070;28;20051;-70
2022/03/08 11:44:57;;;;;;;6.72;4.47;;;;;;;;;;5055906;28;20489;-70
2022/03/08 11:47:23;;;;;;;8.32;5.35;;;;;;;;;;5054741;28;20032;-70
2022/03/08 11:49:53;;;;;;;4.63;3.60;;;;;;;;;;5054766;28;20637;-70
2022/03/08 11:52:19;;;;;;;6.97;3.45;;;;;;;;;;5055882;28;20116;-70
2022/03/08 11:54:53;;;;;;;34.55;11.63;;;;;;;;;;5055855;28;20487;-70
2022/03/08 11:57:37;;;;;;;693.08;243.73;;;;;;;;;;5054108;28;20060;-70
2022/03/08 12:00:16;;;;;;;45.03;18.25;;;;;;;;;;5055780;28;20041;-70
2022/03/08 12:02:50;;;;;;;4.03;3.33;;;;;;;;;;5055668;28;20112;-70
2022/03/08 12:05:51;;;;;;;8.35;4.18;;;;;;;;;;5055583;28;20039;-70
2022/03/08 12:08:32;;;;;;;256.02;80.85;;;;;;;;;;5033722;28;20061;-70
2022/03/08 12:11:05;;;;;;;10.00;6.00;;;;;;;;;;5053195;28;20044;-71
2022/03/08 12:13:38;;;;;;;53.47;19.95;;;;;;;;;;5055486;28;20072;-70
2022/03/08 12:16:11;;;;;;;8.60;4.68;;;;;;;;;;5055437;28;20838;-70
2022/03/08 12:18:47;;;;;;;4.55;3.70;;;;;;;;;;5055311;28;20498;-70
2022/03/08 12:21:17;;;;;;;1741.80;573.72;;;;;;;;;;5053938;28;20025;-71
2022/03/08 12:23:50;;;;;;;112.78;32.85;;;;;;;;;;5055043;28;20498;-70
2022/03/08 12:26:37;;;;;;;9.02;5.32;;;;;;;;;;5055377;28;20017;-70
2022/03/08 12:29:11;;;;;;;452.92;124.57;;;;;;;;;;5055196;28;20063;-70
2022/03/08 12:31:55;;;;;;;1320.95;448.48;;;;;;;;;;5053938;28;20545;-70
2022/03/08 12:34:38;;;;;;;891.92;296.17;;;;;;;;;;5054649;28;20036;-70
2022/03/08 12:37:16;;;;;;;24.48;14.15;;;;;;;;;;5055152;28;20071;-72
2022/03/08 12:39:58;;;;;;;5.88;4.35;;;;;;;;;;5055055;28;20033;-69
2022/03/08 12:42:40;;;;;;;6.72;4.35;;;;;;;;;;5055706;28;20041;-70
2022/03/08 12:45:07;;;;;;;5.63;4.10;;;;;;;;;;5053633;28;20032;-69
2022/03/08 12:47:36;;;;;;;5.95;4.53;;;;;;;;;;5054789;28;20021;-69
2022/03/08 12:50:04;;;;;;;4.10;3.30;;;;;;;;;;5054840;28;20395;-67
2022/03/08 12:52:34;;;;;;;4.95;3.53;;;;;;;;;;5054688;28;20021;-71
2022/03/08 12:55:02;;;;;;;6.60;4.22;;;;;;;;;;5055013;28;20114;-70
2022/03/08 12:57:29;;;;;;;8.02;4.50;;;;;;;;;;5052610;28;20322;-70
2022/03/08 12:59:55;;;;;;;7.20;4.70;;;;;;;;;;5053470;28;20474;-71
2022/03/08 13:02:20;;;;;;;11.55;6.00;;;;;;;;;;5054730;28;20083;-70
2022/03/08 13:04:47;;;;;;;5.38;3.78;;;;;;;;;;5053227;28;20025;-70
2022/03/08 13:07:18;;;;;;;5.60;3.88;;;;;;;;;;5053132;28;20024;-70
2022/03/08 13:09:50;;;;;;;6.47;3.30;;;;;;;;;;5054528;28;20021;-71
2022/03/08 13:12:26;;;;;;;4.05;3.58;;;;;;;;;;5053125;28;20036;-71
2022/03/08 13:15:13;;;;;;;5.28;3.80;;;;;;;;;;5053095;28;20498;-70
2022/03/08 13:17:39;;;;;;;5.75;3.83;;;;;;;;;;5054318;28;20055;-70
2022/03/08 13:20:21;;;;;;;5.68;3.60;;;;;;;;;;5054335;28;20017;-75
2022/03/08 13:22:47;;;;;;;4.35;3.90;;;;;;;;;;5053764;28;20099;-74
2022/03/08 13:25:13;;;;;;;6.75;4.75;;;;;;;;;;5053901;28;20037;-74
2022/03/08 13:28:01;;;;;;;4.47;3.75;;;;;;;;;;5054211;28;20025;-74
2022/03/08 13:30:29;;;;;;;16.77;10.93;;;;;;;;;;5054125;28;20029;-74
2022/03/08 13:33:08;;;;;;;4.00;3.60;;;;;;;;;;5054069;28;20074;-74
2022/03/08 13:35:34;;;;;;;37.38;22.92;;;;;;;;;;5052781;28;20383;-74
2022/03/08 13:38:00;;;;;;;5.88;4.88;;;;;;;;;;5054054;28;20031;-74
2022/03/08 13:40:26;;;;;;;4.63;3.58;;;;;;;;;;5053981;28;20025;-74
2022/03/08 13:42:52;;;;;;;7.18;4.68;;;;;;;;;;5053893;28;20429;-74
2022/03/08 13:45:17;;;;;;;5.35;4.20;;;;;;;;;;5052823;28;20119;-74
2022/03/08 13:47:43;;;;;;;26.92;20.63;;;;;;;;;;5053387;28;20044;-74
2022/03/08 13:50:08;;;;;;;14.02;7.65;;;;;;;;;;5053588;28;20025;-74
2022/03/08 13:52:34;;;;;;;12.85;10.90;;;;;;;;;;5053380;28;20017;-75
2022/03/08 13:55:00;;;;;;;5.93;5.30;;;;;;;;;;5053618;28;20459;-74
2022/03/08 13:57:25;;;;;;;8.10;6.93;;;;;;;;;;5053861;28;20048;-74
2022/03/08 13:59:52;;;;;;;7.78;5.45;;;;;;;;;;5053977;28;20044;-74
2022/03/08 14:02:18;;;;;;;4.68;3.38;;;;;;;;;;5053713;28;20020;-75
2022/03/08 14:04:44;;;;;;;5.38;4.63;;;;;;;;;;5053675;28;20064;-74
2022/03/08 14:07:09;;;;;;;6.00;5.40;;;;;;;;;;5053764;28;20051;-74
2022/03/08 14:09:36;;;;;;;8.23;4.70;;;;;;;;;;5052431;28;20025;-74
2022/03/08 14:12:03;;;;;;;5.45;4.95;;;;;;;;;;5052291;28;20063;-74
2022/03/08 14:14:30;;;;;;;12.55;6.63;;;;;;;;;;5053586;28;20464;-74
2022/03/08 14:16:55;;;;;;;6.60;5.90;;;;;;;;;;5053796;28;20025;-74
2022/03/08 14:19:37;;;;;;;10.70;9.40;;;;;;;;;;5053702;28;20025;-74